マドリード/バラハス の空港の天気 - METARとTAF

マドリード・バラハス国際空港 ( LEMD / MAD ) - スペイン マドリード
飛行場実況気象(Metar)
観測時間02/18 00:00 CET (02/17 23:00 UTC)
風向・風速北北西 2m/s
視程10km以上
天気現象
なし
気温3℃
湿度70%
気圧1020hPa
METARLEMD 172300Z 34003KT CAVOK 03/M02 Q1020 NOSIG
過去の天気等 Google飛行場航空写真 Wunderground天気予報

過去48時間のMETAR

飛行場予報(TAF)
発表時間: 2/17 18:00 CET (2/17 17:00 UTC)
予報対象時間: 17日19時 CET ~ 19日1時 CET
風向・風速不定 3m/s
視程10km以上
なし
17日21時 CET ~ 18日13時 CET に 確率 30% で一時的に
風向・風速東北東 4m/s
18日18時 CET ~ 18日19時 CET に徐々に
風向・風速北北東 3m/s
TAF LEMD 171700Z 1718/1824 VRB05KT CAVOK TX16/1816Z TN01/1806Z
PROB30 TEMPO 1720/1812 06007KT
BECMG 1817/1818 03006KT